Time;durP1;ratioP1;P1;durP2;ratioP2;P2;SDS_P1;SDS_P2;PMS_P1;PMS_P2;Temp;Humidity;BMP_temperature;BMP_pressure;BME280_temperature;BME280_humidity;BME280_pressure;Samples;Min_cycle;Max_cycle;Signal;HPM_P1;HPM_P2
2022/11/30 00:00:54;;;;;;;;;;;11.70;76.50;;;;;;5093923;28;19915;-85
2022/11/30 00:03:20;;;;;;;;;;;11.70;76.50;;;;;;5069921;28;20538;-84
2022/11/30 00:05:46;;;;;;;;;;;11.70;76.50;;;;;;5056304;28;19974;-83
2022/11/30 00:08:11;;;;;;;;;;;11.70;76.50;;;;;;5060848;28;19913;-83
2022/11/30 00:10:38;;;;;;;;;;;11.70;76.50;;;;;;5053878;28;19973;-83
2022/11/30 00:13:03;;;;;;;;;;;11.70;76.50;;;;;;5074309;28;19923;-86
2022/11/30 00:15:29;;;;;;;;;;;11.70;76.50;;;;;;5090203;28;19924;-83
2022/11/30 00:17:55;;;;;;;;;;;11.70;76.50;;;;;;5073997;28;19912;-84
2022/11/30 00:20:21;;;;;;;;;;;11.60;76.40;;;;;;5035142;28;19916;-83
2022/11/30 00:22:47;;;;;;;;;;;11.60;76.40;;;;;;5074054;28;20273;-82
2022/11/30 00:25:12;;;;;;;;;;;11.70;76.50;;;;;;5078662;28;20476;-82
2022/11/30 00:27:38;;;;;;;;;;;11.60;76.40;;;;;;5049577;28;19919;-83
2022/11/30 00:30:04;;;;;;;;;;;11.60;76.40;;;;;;5087290;28;20026;-82
2022/11/30 00:32:30;;;;;;;;;;;11.60;76.50;;;;;;5078361;28;19968;-82
2022/11/30 00:34:56;;;;;;;;;;;11.60;76.50;;;;;;5061404;28;19916;-82
2022/11/30 00:37:22;;;;;;;;;;;11.60;76.50;;;;;;5069855;28;20541;-82
2022/11/30 00:39:48;;;;;;;;;;;11.60;76.50;;;;;;5076368;28;19940;-81
2022/11/30 00:42:13;;;;;;;;;;;11.60;76.50;;;;;;5079683;28;19965;-83
2022/11/30 00:44:39;;;;;;;;;;;11.60;76.50;;;;;;5079832;28;20428;-82
2022/11/30 00:47:05;;;;;;;;;;;11.50;76.40;;;;;;5080331;28;20007;-83
2022/11/30 00:49:32;;;;;;;;;;;11.50;76.40;;;;;;5058128;28;20606;-82
2022/11/30 00:51:58;;;;;;;;;;;11.50;76.50;;;;;;5057854;28;19921;-88
2022/11/30 00:54:24;;;;;;;;;;;11.50;76.40;;;;;;5073571;28;20369;-83
2022/11/30 00:56:50;;;;;;;;;;;11.50;76.40;;;;;;5069695;28;19955;-82
2022/11/30 00:59:15;;;;;;;;;;;11.50;76.40;;;;;;5070805;28;19913;-85
2022/11/30 01:01:41;;;;;;;;;;;11.50;76.40;;;;;;5055902;28;19919;-84
2022/11/30 01:04:06;;;;;;;;;;;11.50;76.40;;;;;;5074107;28;19912;-82
2022/11/30 01:06:32;;;;;;;;;;;11.50;76.40;;;;;;5067628;28;19916;-84
2022/11/30 01:08:58;;;;;;;;;;;11.50;76.50;;;;;;5042126;28;19912;-83
2022/11/30 01:11:25;;;;;;;;;;;11.50;76.50;;;;;;5075116;28;19920;-83
2022/11/30 01:13:51;;;;;;;;;;;11.40;76.40;;;;;;5039359;28;20172;-85
2022/11/30 01:16:18;;;;;;;;;;;11.50;76.40;;;;;;5064720;28;20368;-84
2022/11/30 01:18:44;;;;;;;;;;;11.50;76.50;;;;;;5076747;28;19913;-83
2022/11/30 01:21:12;;;;;;;;;;;11.40;76.40;;;;;;5072810;28;19923;-82
2022/11/30 01:23:38;;;;;;;;;;;11.40;76.40;;;;;;5065518;28;20827;-81
2022/11/30 01:26:04;;;;;;;;;;;11.40;76.40;;;;;;5055310;28;20007;-83
2022/11/30 01:28:30;;;;;;;;;;;11.40;76.40;;;;;;5095781;28;19993;-83
2022/11/30 01:31:07;;;;;;;;;;;11.40;76.40;;;;;;5059711;28;19958;-82
2022/11/30 01:33:33;;;;;;;;;;;11.40;76.40;;;;;;5065275;28;20372;-85
2022/11/30 01:36:04;;;;;;;;;;;11.40;76.40;;;;;;5058434;28;20455;-82
2022/11/30 01:38:31;;;;;;;;;;;11.40;76.40;;;;;;5065109;28;19912;-83
2022/11/30 01:40:56;;;;;;;;;;;11.40;76.40;;;;;;5054875;28;19917;-82
2022/11/30 01:43:35;;;;;;;;;;;11.40;76.40;;;;;;5059564;28;19924;-82
2022/11/30 01:46:01;;;;;;;;;;;11.40;76.50;;;;;;5073553;28;20002;-83
2022/11/30 01:48:27;;;;;;;;;;;11.40;76.50;;;;;;5057215;28;20007;-85
2022/11/30 01:50:53;;;;;;;;;;;11.30;76.40;;;;;;5092561;28;19919;-84
2022/11/30 01:53:19;;;;;;;;;;;11.30;76.40;;;;;;5073853;28;19920;-84
2022/11/30 01:55:47;;;;;;;;;;;11.30;76.40;;;;;;5053591;28;20014;-84
2022/11/30 01:58:15;;;;;;;;;;;11.30;76.40;;;;;;5071555;28;19919;-83
2022/11/30 02:00:43;;;;;;;;;;;11.30;76.50;;;;;;5058337;28;20352;-83
2022/11/30 02:03:27;;;;;;;;;;;11.30;76.40;;;;;;5057973;28;19912;-84
2022/11/30 02:05:53;;;;;;;;;;;11.30;76.40;;;;;;5060524;28;19952;-83
2022/11/30 02:08:19;;;;;;;;;;;11.30;76.40;;;;;;5058173;28;20392;-86
2022/11/30 02:10:49;;;;;;;;;;;11.30;76.50;;;;;;5055661;28;19981;-84
2022/11/30 02:13:27;;;;;;;;;;;11.30;76.50;;;;;;5066835;28;20430;-84
2022/11/30 02:15:56;;;;;;;;;;;11.30;76.50;;;;;;5091461;28;19966;-84
2022/11/30 02:18:26;;;;;;;;;;;11.30;76.50;;;;;;5073034;28;20300;-87
2022/11/30 02:21:12;;;;;;;;;;;11.20;76.40;;;;;;5083297;28;19913;-83
2022/11/30 02:23:47;;;;;;;;;;;11.20;76.40;;;;;;5078486;28;19927;-83
2022/11/30 02:26:19;;;;;;;;;;;11.20;76.40;;;;;;5089287;28;20361;-83
2022/11/30 02:28:45;;;;;;;;;;;11.20;76.50;;;;;;5057149;28;19913;-86
2022/11/30 02:31:13;;;;;;;;;;;11.20;76.40;;;;;;5071417;28;19920;-83
2022/11/30 02:33:40;;;;;;;;;;;11.20;76.50;;;;;;5081558;28;20825;-84
2022/11/30 02:36:07;;;;;;;;;;;11.20;76.50;;;;;;5083712;28;20372;-83
2022/11/30 02:38:32;;;;;;;;;;;11.20;76.50;;;;;;5081286;28;19919;-84
2022/11/30 02:40:58;;;;;;;;;;;11.20;76.50;;;;;;5072998;28;19916;-83
2022/11/30 02:43:25;;;;;;;;;;;11.20;76.50;;;;;;5071703;28;19970;-85
2022/11/30 02:46:00;;;;;;;;;;;11.20;76.50;;;;;;5072596;28;19967;-84
2022/11/30 02:48:29;;;;;;;;;;;11.10;76.50;;;;;;5072567;28;19919;-84
2022/11/30 02:50:59;;;;;;;;;;;11.10;76.40;;;;;;5074286;28;20482;-85
2022/11/30 02:53:25;;;;;;;;;;;11.10;76.50;;;;;;5063105;28;19958;-84
2022/11/30 02:55:52;;;;;;;;;;;11.10;76.40;;;;;;5089480;28;19948;-83
2022/11/30 02:58:17;;;;;;;;;;;11.10;76.50;;;;;;5091784;28;19923;-86
2022/11/30 03:00:44;;;;;;;;;;;11.10;76.50;;;;;;5060000;28;19915;-83
2022/11/30 03:03:10;;;;;;;;;;;11.10;76.50;;;;;;5074144;28;20058;-83
2022/11/30 03:05:35;;;;;;;;;;;11.10;76.50;;;;;;5054069;28;20016;-86
2022/11/30 03:08:01;;;;;;;;;;;11.10;76.50;;;;;;5070683;28;19920;-83
2022/11/30 03:10:27;;;;;;;;;;;11.10;76.50;;;;;;5074532;28;19919;-84
2022/11/30 03:12:55;;;;;;;;;;;11.10;76.50;;;;;;5090683;28;19916;-86
2022/11/30 03:15:21;;;;;;;;;;;11.10;76.50;;;;;;5071414;28;19923;-87
2022/11/30 03:17:47;;;;;;;;;;;11.00;76.40;;;;;;5071873;28;19916;-84
2022/11/30 03:20:12;;;;;;;;;;;11.00;76.40;;;;;;5056407;28;19976;-83
2022/11/30 03:22:38;;;;;;;;;;;11.00;76.50;;;;;;5041920;28;20312;-83
2022/11/30 03:25:04;;;;;;;;;;;11.00;76.40;;;;;;5055714;28;19920;-85
2022/11/30 03:27:29;;;;;;;;;;;11.00;76.50;;;;;;5059360;28;20018;-87
2022/11/30 03:29:55;;;;;;;;;;;11.00;76.50;;;;;;5074133;28;20010;-84
2022/11/30 03:32:21;;;;;;;;;;;11.00;76.50;;;;;;5074368;28;20023;-83
2022/11/30 03:34:46;;;;;;;;;;;11.00;76.50;;;;;;5042846;28;19924;-87
2022/11/30 03:37:12;;;;;;;;;;;11.00;76.50;;;;;;5073290;28;19927;-82
2022/11/30 03:39:37;;;;;;;;;;;11.00;76.50;;;;;;5060200;28;20336;-83
2022/11/30 03:42:03;;;;;;;;;;;11.00;76.50;;;;;;5033894;28;20297;-82
2022/11/30 03:44:29;;;;;;;;;;;11.00;76.50;;;;;;5040588;28;19913;-82
2022/11/30 03:46:54;;;;;;;;;;;11.00;76.50;;;;;;5049498;28;19939;-86
2022/11/30 03:49:20;;;;;;;;;;;11.00;76.50;;;;;;5060410;28;19925;-83
2022/11/30 03:51:46;;;;;;;;;;;11.00;76.50;;;;;;5046274;28;19920;-83
2022/11/30 03:54:11;;;;;;;;;;;10.90;76.50;;;;;;5051001;28;19963;-83
2022/11/30 03:56:37;;;;;;;;;;;10.90;76.50;;;;;;5043048;28;20040;-84
2022/11/30 03:59:03;;;;;;;;;;;10.90;76.50;;;;;;5051217;28;19912;-84
2022/11/30 04:01:28;;;;;;;;;;;10.90;76.50;;;;;;5050212;28;19924;-83
2022/11/30 04:03:54;;;;;;;;;;;10.90;77.10;;;;;;5034819;28;19952;-83
2022/11/30 04:06:20;;;;;;;;;;;10.90;76.50;;;;;;5050523;28;19912;-83
2022/11/30 04:08:47;;;;;;;;;;;10.90;76.50;;;;;;5027992;28;20288;-83
2022/11/30 04:11:13;;;;;;;;;;;10.90;76.50;;;;;;5048402;28;19917;-84
2022/11/30 04:13:39;;;;;;;;;;;10.90;76.50;;;;;;5049335;28;19939;-82
2022/11/30 04:16:06;;;;;;;;;;;10.90;76.50;;;;;;5054220;28;19963;-86
2022/11/30 04:18:32;;;;;;;;;;;10.90;76.50;;;;;;5032280;28;19913;-83
2022/11/30 04:20:58;;;;;;;;;;;10.80;76.50;;;;;;5053142;28;19916;-83
2022/11/30 04:23:24;;;;;;;;;;;10.80;76.50;;;;;;5047630;28;19966;-83
2022/11/30 04:25:50;;;;;;;;;;;10.80;76.50;;;;;;5045432;28;19921;-82
2022/11/30 04:28:16;;;;;;;;;;;10.80;76.50;;;;;;5029310;28;19917;-82
2022/11/30 04:30:45;;;;;;;;;;;10.80;76.50;;;;;;5049295;28;19913;-83
2022/11/30 04:33:11;;;;;;;;;;;10.80;76.50;;;;;;5044066;28;20000;-83
2022/11/30 04:35:41;;;;;;;;;;;10.80;76.50;;;;;;5034661;28;19946;-83
2022/11/30 04:38:06;;;;;;;;;;;10.80;77.10;;;;;;5038890;28;19920;-85
2022/11/30 04:40:32;;;;;;;;;;;10.70;76.40;;;;;;5046406;28;20286;-84
2022/11/30 04:42:58;;;;;;;;;;;10.70;76.40;;;;;;5037289;28;20069;-84
2022/11/30 04:45:24;;;;;;;;;;;10.70;76.40;;;;;;5063679;28;19966;-82
2022/11/30 04:47:49;;;;;;;;;;;10.70;76.40;;;;;;5062742;28;19921;-82
2022/11/30 04:50:15;;;;;;;;;;;10.60;76.40;;;;;;5056177;28;19924;-84
2022/11/30 04:52:41;;;;;;;;;;;10.60;76.40;;;;;;5067172;28;20000;-83
2022/11/30 04:55:06;;;;;;;;;;;10.60;76.40;;;;;;5066557;28;19966;-83
2022/11/30 04:57:32;;;;;;;;;;;10.60;77.00;;;;;;5035627;28;20396;-83
2022/11/30 04:59:58;;;;;;;;;;;10.60;76.40;;;;;;5069501;28;20688;-83
2022/11/30 05:02:23;;;;;;;;;;;10.60;76.40;;;;;;5070468;28;19958;-83
2022/11/30 05:04:49;;;;;;;;;;;10.60;76.40;;;;;;5065916;28;19912;-83
2022/11/30 05:07:14;;;;;;;;;;;10.50;76.30;;;;;;5057260;28;19912;-84
2022/11/30 05:09:40;;;;;;;;;;;10.50;76.30;;;;;;5067926;28;19966;-83
2022/11/30 05:12:06;;;;;;;;;;;10.50;76.30;;;;;;5059319;28;19913;-85
2022/11/30 05:14:32;;;;;;;;;;;10.50;76.30;;;;;;5056165;28;19917;-85
2022/11/30 05:16:57;;;;;;;;;;;10.50;76.30;;;;;;5071500;28;20327;-83
2022/11/30 05:19:23;;;;;;;;;;;10.40;76.30;;;;;;5073400;28;20273;-84
2022/11/30 05:21:49;;;;;;;;;;;10.40;76.30;;;;;;5066343;28;19913;-84
2022/11/30 05:24:14;;;;;;;;;;;10.40;76.30;;;;;;5073163;28;19917;-82
2022/11/30 05:26:40;;;;;;;;;;;10.40;76.30;;;;;;5056493;28;19912;-82
2022/11/30 05:29:05;;;;;;;;;;;10.30;76.30;;;;;;5078664;28;20517;-82
2022/11/30 05:31:32;;;;;;;;;;;10.30;76.30;;;;;;5035646;28;20081;-83
2022/11/30 05:33:58;;;;;;;;;;;10.30;76.30;;;;;;5074286;28;19943;-84
2022/11/30 05:36:23;;;;;;;;;;;10.30;76.30;;;;;;5078103;28;19939;-82
2022/11/30 05:38:49;;;;;;;;;;;10.30;76.30;;;;;;5051346;28;19924;-84
2022/11/30 05:41:15;;;;;;;;;;;10.20;76.20;;;;;;5056677;28;19926;-82
2022/11/30 05:43:40;;;;;;;;;;;10.20;76.20;;;;;;5070209;28;20049;-81
2022/11/30 05:46:07;;;;;;;;;;;10.20;76.20;;;;;;5057915;28;19970;-83
2022/11/30 05:48:33;;;;;;;;;;;10.20;76.20;;;;;;5076443;28;19919;-83
2022/11/30 05:51:10;;;;;;;;;;;10.10;76.20;;;;;;5058807;28;19919;-83
2022/11/30 05:53:36;;;;;;;;;;;10.10;76.20;;;;;;5072521;28;20372;-84
2022/11/30 05:56:03;;;;;;;;;;;10.10;76.20;;;;;;5066448;28;19917;-87
2022/11/30 05:58:28;;;;;;;;;;;10.10;76.20;;;;;;5058004;28;19916;-83
2022/11/30 06:00:54;;;;;;;;;;;10.00;76.10;;;;;;5039502;28;20007;-82
2022/11/30 06:03:20;;;;;;;;;;;10.00;76.20;;;;;;5066521;28;19966;-81
2022/11/30 06:05:48;;;;;;;;;;;10.00;76.20;;;;;;5036877;28;19916;-81
2022/11/30 06:08:13;;;;;;;;;;;10.00;76.20;;;;;;5057030;28;19963;-80
2022/11/30 06:10:39;;;;;;;;;;;10.00;76.20;;;;;;5052954;28;20322;-82
2022/11/30 06:13:06;;;;;;;;;;;9.90;76.10;;;;;;5049962;28;19920;-82
2022/11/30 06:15:32;;;;;;;;;;;9.90;76.10;;;;;;5066771;28;20022;-80
2022/11/30 06:17:57;;;;;;;;;;;9.90;76.10;;;;;;5041749;28;20059;-82
2022/11/30 06:20:23;;;;;;;;;;;9.80;76.10;;;;;;5059819;28;19967;-82
2022/11/30 06:22:48;;;;;;;;;;;9.80;76.10;;;;;;5083085;28;19998;-83
2022/11/30 06:25:14;;;;;;;;;;;9.80;76.10;;;;;;5073544;28;19982;-82
2022/11/30 06:27:42;;;;;;;;;;;9.80;76.10;;;;;;5066300;28;19920;-85
2022/11/30 06:30:08;;;;;;;;;;;9.80;76.10;;;;;;5065790;28;19920;-83
2022/11/30 06:32:34;;;;;;;;;;;9.70;76.10;;;;;;5057173;28;20376;-82
2022/11/30 06:34:59;;;;;;;;;;;9.70;76.10;;;;;;5043206;28;19933;-82
2022/11/30 06:37:25;;;;;;;;;;;9.70;76.10;;;;;;5047544;28;19920;-80
2022/11/30 06:39:51;;;;;;;;;;;9.70;76.10;;;;;;5054464;28;20015;-82
2022/11/30 06:42:18;;;;;;;;;;;9.60;76.00;;;;;;5073548;28;19924;-83
2022/11/30 06:44:44;;;;;;;;;;;9.60;76.10;;;;;;5054596;28;19924;-83
2022/11/30 06:47:10;;;;;;;;;;;9.60;76.10;;;;;;5093981;28;20008;-83
2022/11/30 06:49:35;;;;;;;;;;;9.60;76.10;;;;;;5094063;28;19951;-83
2022/11/30 06:52:01;;;;;;;;;;;9.50;76.10;;;;;;5064145;28;20428;-85
2022/11/30 06:54:27;;;;;;;;;;;9.50;76.10;;;;;;5059690;28;20398;-83
2022/11/30 06:56:52;;;;;;;;;;;9.50;76.10;;;;;;5057430;28;19920;-83
2022/11/30 06:59:18;;;;;;;;;;;9.50;76.10;;;;;;5074287;28;20011;-84
2022/11/30 07:01:43;;;;;;;;;;;9.50;76.10;;;;;;5061380;28;20310;-85
2022/11/30 07:04:09;;;;;;;;;;;9.40;76.00;;;;;;5059992;28;19923;-85
2022/11/30 07:06:35;;;;;;;;;;;9.40;76.00;;;;;;5067878;28;19947;-83
2022/11/30 07:09:00;;;;;;;;;;;9.40;76.00;;;;;;5070975;28;20316;-83
2022/11/30 07:11:26;;;;;;;;;;;9.40;76.00;;;;;;5072940;28;19995;-82
2022/11/30 07:13:52;;;;;;;;;;;9.40;76.10;;;;;;5062702;28;19955;-83
2022/11/30 07:16:17;;;;;;;;;;;9.30;76.00;;;;;;5068113;28;19920;-82
2022/11/30 07:18:43;;;;;;;;;;;9.30;76.00;;;;;;5058081;28;19963;-83
2022/11/30 07:21:09;;;;;;;;;;;9.30;76.00;;;;;;5065846;28;19970;-82
2022/11/30 07:26:19;;;;;;;;;;;9.20;76.00;;;;;;5077239;28;19922;-84
2022/11/30 07:28:45;;;;;;;;;;;9.30;76.10;;;;;;5059499;28;20424;-84
2022/11/30 07:31:15;;;;;;;;;;;9.20;76.00;;;;;;5072535;28;20006;-83
2022/11/30 07:33:41;;;;;;;;;;;9.20;76.00;;;;;;5073984;28;19916;-84
2022/11/30 07:36:07;;;;;;;;;;;9.20;76.00;;;;;;5080992;28;20018;-86
2022/11/30 07:38:32;;;;;;;;;;;9.20;76.00;;;;;;5081149;28;19950;-83
2022/11/30 07:40:58;;;;;;;;;;;9.20;76.10;;;;;;5039142;28;19919;-85
2022/11/30 07:43:24;;;;;;;;;;;9.20;76.00;;;;;;5059293;28;19943;-83
2022/11/30 07:45:59;;;;;;;;;;;9.10;76.00;;;;;;5087043;28;19974;-83
2022/11/30 07:48:25;;;;;;;;;;;9.10;76.00;;;;;;5066809;28;19912;-82
2022/11/30 07:50:50;;;;;;;;;;;9.10;76.00;;;;;;5077563;28;19916;-83
2022/11/30 07:53:16;;;;;;;;;;;9.00;76.00;;;;;;5058946;28;19948;-86
2022/11/30 07:55:42;;;;;;;;;;;9.00;76.00;;;;;;5076365;28;19916;-83
2022/11/30 07:58:11;;;;;;;;;;;9.00;76.00;;;;;;5091091;28;19920;-84
2022/11/30 08:00:37;;;;;;;;;;;9.00;76.00;;;;;;5088297;28;20365;-83
2022/11/30 08:03:03;;;;;;;;;;;9.00;76.00;;;;;;5073240;28;19923;-83
2022/11/30 08:05:29;;;;;;;;;;;9.00;76.00;;;;;;5076706;28;19912;-85
2022/11/30 08:07:54;;;;;;;;;;;9.00;76.00;;;;;;5059167;28;19920;-83
2022/11/30 08:10:20;;;;;;;;;;;9.00;76.10;;;;;;5071415;28;19938;-85
2022/11/30 08:12:46;;;;;;;;;;;8.90;76.00;;;;;;5051832;28;19926;-83
2022/11/30 08:15:12;;;;;;;;;;;8.90;76.00;;;;;;5071918;28;19916;-83
2022/11/30 08:17:38;;;;;;;;;;;8.90;76.10;;;;;;5057207;28;20387;-85
2022/11/30 08:20:04;;;;;;;;;;;8.90;76.00;;;;;;5052199;28;20001;-83
2022/11/30 08:22:31;;;;;;;;;;;8.90;76.10;;;;;;5068230;28;19952;-86
2022/11/30 08:24:57;;;;;;;;;;;8.90;76.10;;;;;;5071194;28;19912;-83
2022/11/30 08:27:22;;;;;;;;;;;8.90;76.10;;;;;;5086265;28;20303;-82
2022/11/30 08:29:48;;;;;;;;;;;8.90;76.10;;;;;;5060434;28;19962;-82
2022/11/30 08:32:13;;;;;;;;;;;8.90;76.10;;;;;;5058974;28;19923;-82
2022/11/30 08:34:39;;;;;;;;;;;8.90;76.10;;;;;;5079982;28;19923;-83
2022/11/30 08:37:05;;;;;;;;;;;8.90;76.20;;;;;;5079892;28;20318;-82
2022/11/30 08:39:33;;;;;;;;;;;8.90;76.20;;;;;;5066528;28;20177;-88
2022/11/30 08:41:59;;;;;;;;;;;8.90;76.20;;;;;;5047201;28;20611;-82
2022/11/30 08:44:27;;;;;;;;;;;8.80;76.10;;;;;;5096309;28;20016;-83
2022/11/30 08:46:52;;;;;;;;;;;8.90;76.20;;;;;;5094196;28;19912;-86
2022/11/30 08:49:19;;;;;;;;;;;8.80;76.20;;;;;;5076621;28;19977;-82
2022/11/30 08:51:45;;;;;;;;;;;8.90;76.20;;;;;;5065080;28;19912;-81
2022/11/30 08:54:11;;;;;;;;;;;8.90;76.20;;;;;;5055601;28;19964;-82
2022/11/30 08:56:36;;;;;;;;;;;8.90;76.20;;;;;;5064756;28;20372;-82
2022/11/30 08:59:02;;;;;;;;;;;8.90;76.20;;;;;;5060673;28;19916;-82
2022/11/30 09:01:28;;;;;;;;;;;8.90;76.20;;;;;;5064724;28;19924;-81
2022/11/30 09:03:54;;;;;;;;;;;8.90;76.20;;;;;;5072880;28;19955;-82
2022/11/30 09:06:21;;;;;;;;;;;8.90;76.30;;;;;;5078399;28;20414;-82
2022/11/30 09:08:48;;;;;;;;;;;8.90;76.30;;;;;;5074392;28;19916;-82
2022/11/30 09:11:24;;;;;;;;;;;8.90;76.30;;;;;;5094541;28;19962;-82
2022/11/30 09:13:51;;;;;;;;;;;8.90;76.30;;;;;;5069591;28;20368;-84
2022/11/30 09:16:17;;;;;;;;;;;8.90;76.30;;;;;;5077752;28;19917;-83
2022/11/30 09:18:43;;;;;;;;;;;8.90;76.30;;;;;;5070872;28;19916;-82
2022/11/30 09:21:10;;;;;;;;;;;8.90;76.30;;;;;;5068536;28;20003;-84
2022/11/30 09:23:37;;;;;;;;;;;8.90;76.30;;;;;;5091393;28;19920;-82
2022/11/30 09:26:04;;;;;;;;;;;8.90;76.30;;;;;;5075046;28;20019;-85
2022/11/30 09:28:30;;;;;;;;;;;8.90;76.30;;;;;;5062052;28;19916;-84
2022/11/30 09:31:03;;;;;;;;;;;8.90;76.30;;;;;;5078484;28;19926;-83
2022/11/30 09:33:29;;;;;;;;;;;9.00;76.40;;;;;;5087194;28;20432;-82
2022/11/30 09:35:58;;;;;;;;;;;9.00;76.40;;;;;;5074748;28;19959;-82
2022/11/30 09:38:24;;;;;;;;;;;9.00;76.40;;;;;;5089112;28;19919;-82
2022/11/30 09:40:53;;;;;;;;;;;9.00;76.40;;;;;;5064094;28;19916;-82
2022/11/30 09:43:38;;;;;;;;;;;9.00;76.50;;;;;;5067291;28;19921;-83
2022/11/30 09:46:04;;;;;;;;;;;9.00;76.40;;;;;;5073042;28;19915;-81
2022/11/30 09:48:49;;;;;;;;;;;9.00;76.50;;;;;;5073092;28;20369;-81
2022/11/30 09:51:19;;;;;;;;;;;9.00;76.40;;;;;;5078579;28;20505;-82
2022/11/30 09:53:50;;;;;;;;;;;9.00;76.50;;;;;;5074530;28;19916;-82
2022/11/30 09:56:22;;;;;;;;;;;9.10;76.50;;;;;;5060534;28;19918;-82
2022/11/30 09:58:51;;;;;;;;;;;9.10;76.50;;;;;;5094100;28;19986;-83
2022/11/30 10:01:18;;;;;;;;;;;9.10;76.50;;;;;;5076290;28;20005;-81
2022/11/30 10:03:45;;;;;;;;;;;9.10;76.50;;;;;;5056180;28;19965;-80
2022/11/30 10:06:15;;;;;;;;;;;9.10;76.50;;;;;;5055657;28;19999;-83
2022/11/30 10:08:41;;;;;;;;;;;9.10;76.50;;;;;;5091441;28;19923;-80
2022/11/30 10:11:16;;;;;;;;;;;9.10;76.50;;;;;;5063555;28;19912;-81
2022/11/30 10:14:02;;;;;;;;;;;9.10;76.50;;;;;;5086329;28;19922;-83
2022/11/30 10:16:30;;;;;;;;;;;9.10;76.50;;;;;;5070868;28;19924;-81
2022/11/30 10:19:05;;;;;;;;;;;9.20;76.60;;;;;;5060119;28;20010;-80
2022/11/30 10:21:31;;;;;;;;;;;9.20;76.60;;;;;;5091209;28;19911;-81
2022/11/30 10:23:57;;;;;;;;;;;9.20;76.60;;;;;;5071279;28;19912;-81
2022/11/30 10:26:27;;;;;;;;;;;9.20;76.60;;;;;;5057326;28;19920;-81
2022/11/30 10:28:53;;;;;;;;;;;9.20;76.60;;;;;;5073285;28;20078;-81
2022/11/30 10:31:24;;;;;;;;;;;9.30;76.70;;;;;;5069643;28;20056;-84
2022/11/30 10:33:51;;;;;;;;;;;9.30;76.60;;;;;;5076937;28;20051;-81
2022/11/30 10:36:19;;;;;;;;;;;9.30;76.60;;;;;;5065332;28;19916;-84
2022/11/30 10:38:47;;;;;;;;;;;9.30;76.70;;;;;;5083570;28;19912;-81
2022/11/30 10:41:16;;;;;;;;;;;9.30;76.60;;;;;;5068966;28;19912;-81
2022/11/30 10:43:47;;;;;;;;;;;9.30;76.60;;;;;;4992354;28;2010517;-81
2022/11/30 10:46:17;;;;;;;;;;;9.40;76.70;;;;;;5071937;28;19926;-80
2022/11/30 10:48:47;;;;;;;;;;;9.40;76.70;;;;;;5061175;28;19912;-81
2022/11/30 10:51:13;;;;;;;;;;;9.40;76.70;;;;;;5060634;28;19919;-81
2022/11/30 10:53:38;;;;;;;;;;;9.40;76.70;;;;;;5088560;28;19920;-81
2022/11/30 10:56:09;;;;;;;;;;;9.40;76.70;;;;;;5047751;28;20666;-82
2022/11/30 10:58:40;;;;;;;;;;;9.40;76.70;;;;;;5057513;28;20028;-80
2022/11/30 11:01:08;;;;;;;;;;;9.40;76.70;;;;;;5062868;28;19916;-80
2022/11/30 11:03:34;;;;;;;;;;;9.40;76.70;;;;;;5058955;28;19943;-81
2022/11/30 11:06:21;;;;;;;;;;;9.40;76.70;;;;;;5073220;28;20246;-81
2022/11/30 11:08:47;;;;;;;;;;;9.50;76.80;;;;;;5069409;28;19912;-80
2022/11/30 11:11:30;;;;;;;;;;;9.50;76.80;;;;;;5058635;28;19922;-81
2022/11/30 11:14:14;;;;;;;;;;;9.50;76.80;;;;;;5064869;28;19928;-81
2022/11/30 11:16:58;;;;;;;;;;;9.50;76.80;;;;;;5094845;28;19912;-81
2022/11/30 11:19:41;;;;;;;;;;;9.50;76.90;;;;;;5061998;28;19919;-80
2022/11/30 11:22:17;;;;;;;;;;;9.50;76.90;;;;;;5069715;28;19912;-81
2022/11/30 11:24:43;;;;;;;;;;;9.50;76.90;;;;;;5067696;28;19912;-80
2022/11/30 11:27:19;;;;;;;;;;;9.50;76.90;;;;;;5089664;28;20279;-80
2022/11/30 11:29:45;;;;;;;;;;;9.60;76.90;;;;;;5068203;28;19995;-79
2022/11/30 11:32:20;;;;;;;;;;;9.50;76.90;;;;;;5074824;28;19916;-79
2022/11/30 11:34:46;;;;;;;;;;;9.50;76.90;;;;;;5056340;28;19928;-78
2022/11/30 11:37:20;;;;;;;;;;;9.60;76.90;;;;;;5071265;28;19942;-79
2022/11/30 11:39:54;;;;;;;;;;;9.60;76.90;;;;;;5073596;28;20384;-83
2022/11/30 11:42:20;;;;;;;;;;;9.60;76.90;;;;;;5065959;28;19951;-81
2022/11/30 11:44:48;;;;;;;;;;;9.60;76.90;;;;;;5091813;28;19966;-82
2022/11/30 11:47:41;;;;;;;;;;;9.60;77.00;;;;;;5074137;28;19912;-81
2022/11/30 11:50:19;;;;;;;;;;;9.70;77.00;;;;;;5077327;28;19919;-80
2022/11/30 11:52:45;;;;;;;;;;;9.60;77.00;;;;;;5063938;28;19916;-80
2022/11/30 11:55:18;;;;;;;;;;;9.60;77.00;;;;;;5064714;28;19931;-80
2022/11/30 11:57:59;;;;;;;;;;;9.60;77.00;;;;;;5076547;28;20399;-80
2022/11/30 12:00:25;;;;;;;;;;;9.70;77.00;;;;;;5081024;28;19915;-79
2022/11/30 12:03:07;;;;;;;;;;;9.70;77.00;;;;;;5059229;28;19917;-80
2022/11/30 12:05:35;;;;;;;;;;;9.70;77.00;;;;;;5074080;28;19957;-80
2022/11/30 12:08:04;;;;;;;;;;;9.70;77.00;;;;;;5092533;28;19912;-80
2022/11/30 12:10:34;;;;;;;;;;;9.70;77.00;;;;;;5093904;28;19916;-81
2022/11/30 12:13:00;;;;;;;;;;;9.70;77.00;;;;;;5056231;28;19920;-81
2022/11/30 12:15:29;;;;;;;;;;;9.80;77.10;;;;;;5070892;28;19917;-80
2022/11/30 12:17:55;;;;;;;;;;;9.80;77.10;;;;;;5063428;28;19957;-80
2022/11/30 12:20:30;;;;;;;;;;;9.80;77.10;;;;;;5077739;28;19916;-80
2022/11/30 12:22:55;;;;;;;;;;;9.80;77.10;;;;;;5069567;28;19955;-82
2022/11/30 12:25:26;;;;;;;;;;;9.80;77.10;;;;;;5068233;28;19961;-81
2022/11/30 12:27:51;;;;;;;;;;;9.80;77.10;;;;;;5077630;28;20280;-80
2022/11/30 12:30:23;;;;;;;;;;;9.80;77.00;;;;;;5066636;28;19919;-81
2022/11/30 12:33:09;;;;;;;;;;;9.90;77.10;;;;;;5058751;28;19920;-81
2022/11/30 12:35:53;;;;;;;;;;;9.90;77.10;;;;;;5090534;28;20368;-80
2022/11/30 12:38:22;;;;;;;;;;;9.90;77.10;;;;;;5087629;28;20372;-81
2022/11/30 12:40:50;;;;;;;;;;;9.90;77.10;;;;;;5067045;28;19962;-80
2022/11/30 12:43:19;;;;;;;;;;;10.00;77.10;;;;;;5068300;28;19955;-80
2022/11/30 12:45:46;;;;;;;;;;;10.00;77.10;;;;;;5068892;28;19970;-79
2022/11/30 12:48:21;;;;;;;;;;;10.00;77.10;;;;;;5069935;28;19912;-81
2022/11/30 12:50:58;;;;;;;;;;;10.00;77.10;;;;;;5075255;28;19916;-81
2022/11/30 12:53:43;;;;;;;;;;;10.00;77.10;;;;;;5049719;28;19920;-80
2022/11/30 12:56:09;;;;;;;;;;;10.00;77.10;;;;;;5091643;28;19920;-80
2022/11/30 12:58:40;;;;;;;;;;;10.10;77.10;;;;;;5073335;28;19920;-81
2022/11/30 13:01:10;;;;;;;;;;;10.00;77.00;;;;;;5060047;28;19935;-81
2022/11/30 13:03:42;;;;;;;;;;;10.10;77.10;;;;;;5072535;28;19916;-81
2022/11/30 13:06:15;;;;;;;;;;;10.10;77.10;;;;;;5069828;28;19916;-80
2022/11/30 13:09:05;;;;;;;;;;;10.10;77.00;;;;;;5072605;28;20011;-82
2022/11/30 13:11:35;;;;;;;;;;;10.10;77.00;;;;;;5044059;28;19921;-82
2022/11/30 13:14:02;;;;;;;;;;;10.10;77.00;;;;;;5079564;28;19946;-81
2022/11/30 13:16:29;;;;;;;;;;;10.20;77.10;;;;;;5089230;28;19912;-81
2022/11/30 13:19:00;;;;;;;;;;;10.20;77.10;;;;;;5091486;28;19999;-81
2022/11/30 13:21:38;;;;;;;;;;;10.20;77.00;;;;;;5094013;28;19914;-81
2022/11/30 13:24:13;;;;;;;;;;;10.20;77.00;;;;;;5060295;28;19912;-81
2022/11/30 13:26:47;;;;;;;;;;;10.20;77.00;;;;;;5089205;28;19920;-80
2022/11/30 13:29:26;;;;;;;;;;;10.20;77.00;;;;;;5065768;28;19916;-80
2022/11/30 13:32:04;;;;;;;;;;;10.30;77.00;;;;;;5089647;28;19908;-80
2022/11/30 13:34:31;;;;;;;;;;;10.30;77.00;;;;;;5091252;28;19920;-80
2022/11/30 13:37:04;;;;;;;;;;;10.30;77.00;;;;;;5077856;28;20361;-80
2022/11/30 13:39:36;;;;;;;;;;;10.30;77.00;;;;;;5070857;28;19931;-84
2022/11/30 13:42:05;;;;;;;;;;;10.30;77.00;;;;;;5073250;28;19912;-80
2022/11/30 13:44:33;;;;;;;;;;;10.30;77.00;;;;;;5077671;28;19924;-81
2022/11/30 13:47:00;;;;;;;;;;;10.30;76.90;;;;;;5093600;28;20326;-84
2022/11/30 13:49:32;;;;;;;;;;;10.30;76.90;;;;;;5056876;28;19911;-80
2022/11/30 13:51:58;;;;;;;;;;;10.40;76.90;;;;;;5090574;28;19913;-80
2022/11/30 13:54:36;;;;;;;;;;;10.40;76.90;;;;;;5076037;28;19934;-83
2022/11/30 13:57:02;;;;;;;;;;;10.40;76.90;;;;;;5092961;28;19955;-80
2022/11/30 13:59:33;;;;;;;;;;;10.40;76.90;;;;;;5079212;28;20373;-81
2022/11/30 14:02:17;;;;;;;;;;;10.40;76.90;;;;;;5056248;28;19968;-80
2022/11/30 14:04:44;;;;;;;;;;;10.40;76.90;;;;;;5075740;28;19927;-81
2022/11/30 14:07:28;;;;;;;;;;;10.40;76.90;;;;;;5063176;28;19923;-81
2022/11/30 14:09:55;;;;;;;;;;;10.40;76.90;;;;;;5080466;28;20253;-81
2022/11/30 14:12:31;;;;;;;;;;;10.40;76.80;;;;;;5075088;28;20313;-81
2022/11/30 14:15:00;;;;;;;;;;;10.50;77.50;;;;;;5082258;28;19924;-80
2022/11/30 14:17:27;;;;;;;;;;;10.50;76.90;;;;;;5057640;28;19955;-80
2022/11/30 14:19:56;;;;;;;;;;;10.50;76.90;;;;;;5081169;28;19918;-81
2022/11/30 14:22:22;;;;;;;;;;;10.50;76.90;;;;;;5065439;28;19912;-81
2022/11/30 14:24:48;;;;;;;;;;;10.50;76.80;;;;;;5065637;28;19927;-81
2022/11/30 14:27:16;;;;;;;;;;;10.50;76.80;;;;;;5060931;28;19962;-81
2022/11/30 14:29:42;;;;;;;;;;;10.50;77.40;;;;;;5061421;28;19912;-80
2022/11/30 14:32:27;;;;;;;;;;;10.50;76.80;;;;;;5080032;28;20619;-80